sensor_id;sensor_type;location;lat;lon;timestamp;P1;durP1;ratioP1;P2;durP2;ratioP2
22939;SDS011;11636;52.086;5.090;2023-05-29T00:00:13;13.23;;;3.25;;
22939;SDS011;11636;52.086;5.090;2023-05-29T00:03:09;13.88;;;3.30;;
22939;SDS011;11636;52.086;5.090;2023-05-29T00:06:02;18.23;;;3.92;;
22939;SDS011;11636;52.086;5.090;2023-05-29T00:08:54;13.32;;;3.10;;
22939;SDS011;11636;52.086;5.090;2023-05-29T00:11:46;11.27;;;2.88;;
22939;SDS011;11636;52.086;5.090;2023-05-29T00:14:42;10.48;;;2.45;;
22939;SDS011;11636;52.086;5.090;2023-05-29T00:17:27;12.13;;;2.90;;
22939;SDS011;11636;52.086;5.090;2023-05-29T00:20:20;14.10;;;2.80;;
22939;SDS011;11636;52.086;5.090;2023-05-29T00:23:06;11.25;;;2.67;;
22939;SDS011;11636;52.086;5.090;2023-05-29T00:28:44;12.35;;;3.20;;
22939;SDS011;11636;52.086;5.090;2023-05-29T00:31:36;11.77;;;2.55;;
22939;SDS011;11636;52.086;5.090;2023-05-29T00:34:22;10.93;;;2.40;;
22939;SDS011;11636;52.086;5.090;2023-05-29T00:37:14;11.02;;;2.65;;
22939;SDS011;11636;52.086;5.090;2023-05-29T00:40:06;9.32;;;2.28;;
22939;SDS011;11636;52.086;5.090;2023-05-29T00:42:52;8.93;;;2.25;;
22939;SDS011;11636;52.086;5.090;2023-05-29T00:45:44;14.43;;;2.47;;
22939;SDS011;11636;52.086;5.090;2023-05-29T00:48:30;7.93;;;1.85;;
22939;SDS011;11636;52.086;5.090;2023-05-29T00:51:22;9.45;;;2.58;;
22939;SDS011;11636;52.086;5.090;2023-05-29T00:54:07;10.85;;;2.50;;
22939;SDS011;11636;52.086;5.090;2023-05-29T00:57:08;11.73;;;2.45;;
22939;SDS011;11636;52.086;5.090;2023-05-29T01:00:00;11.32;;;2.30;;
22939;SDS011;11636;52.086;5.090;2023-05-29T01:02:56;10.10;;;2.25;;
22939;SDS011;11636;52.086;5.090;2023-05-29T01:05:50;7.88;;;2.17;;
22939;SDS011;11636;52.086;5.090;2023-05-29T01:08:43;9.05;;;2.42;;
22939;SDS011;11636;52.086;5.090;2023-05-29T01:11:45;14.77;;;2.67;;
22939;SDS011;11636;52.086;5.090;2023-05-29T01:21:16;8.65;;;2.08;;
22939;SDS011;11636;52.086;5.090;2023-05-29T01:27:22;11.27;;;2.25;;
22939;SDS011;11636;52.086;5.090;2023-05-29T01:30:17;10.13;;;2.13;;
22939;SDS011;11636;52.086;5.090;2023-05-29T01:33:11;8.80;;;2.45;;
22939;SDS011;11636;52.086;5.090;2023-05-29T01:35:57;7.72;;;1.98;;
22939;SDS011;11636;52.086;5.090;2023-05-29T01:38:50;8.55;;;1.95;;
22939;SDS011;11636;52.086;5.090;2023-05-29T01:41:36;10.88;;;2.20;;
22939;SDS011;11636;52.086;5.090;2023-05-29T01:47:15;9.30;;;2.10;;
22939;SDS011;11636;52.086;5.090;2023-05-29T01:50:07;8.65;;;2.20;;
22939;SDS011;11636;52.086;5.090;2023-05-29T01:52:54;10.18;;;2.20;;
22939;SDS011;11636;52.086;5.090;2023-05-29T01:55:46;9.77;;;1.92;;
22939;SDS011;11636;52.086;5.090;2023-05-29T01:58:32;9.40;;;2.30;;
22939;SDS011;11636;52.086;5.090;2023-05-29T02:01:25;8.52;;;1.90;;
22939;SDS011;11636;52.086;5.090;2023-05-29T02:04:11;9.43;;;1.70;;
22939;SDS011;11636;52.086;5.090;2023-05-29T02:07:03;9.13;;;2.40;;
22939;SDS011;11636;52.086;5.090;2023-05-29T02:09:50;10.93;;;2.30;;
22939;SDS011;11636;52.086;5.090;2023-05-29T02:12:42;10.18;;;2.42;;
22939;SDS011;11636;52.086;5.090;2023-05-29T02:15:34;13.18;;;2.40;;
22939;SDS011;11636;52.086;5.090;2023-05-29T02:18:26;9.85;;;2.03;;
22939;SDS011;11636;52.086;5.090;2023-05-29T02:21:12;8.65;;;2.30;;
22939;SDS011;11636;52.086;5.090;2023-05-29T02:24:04;12.13;;;2.33;;
22939;SDS011;11636;52.086;5.090;2023-05-29T02:26:49;11.68;;;2.33;;
22939;SDS011;11636;52.086;5.090;2023-05-29T02:29:41;9.68;;;1.98;;
22939;SDS011;11636;52.086;5.090;2023-05-29T02:32:33;9.10;;;2.33;;
22939;SDS011;11636;52.086;5.090;2023-05-29T02:35:19;8.20;;;2.00;;
22939;SDS011;11636;52.086;5.090;2023-05-29T02:38:13;8.05;;;1.80;;
22939;SDS011;11636;52.086;5.090;2023-05-29T02:41:05;7.07;;;1.88;;
22939;SDS011;11636;52.086;5.090;2023-05-29T02:43:51;7.93;;;2.30;;
22939;SDS011;11636;52.086;5.090;2023-05-29T02:46:43;7.18;;;1.50;;
22939;SDS011;11636;52.086;5.090;2023-05-29T02:49:29;9.68;;;2.13;;
22939;SDS011;11636;52.086;5.090;2023-05-29T02:52:21;9.80;;;2.15;;
22939;SDS011;11636;52.086;5.090;2023-05-29T02:55:07;8.85;;;2.10;;
22939;SDS011;11636;52.086;5.090;2023-05-29T02:58:00;10.07;;;2.38;;
22939;SDS011;11636;52.086;5.090;2023-05-29T03:00:53;8.43;;;1.80;;
22939;SDS011;11636;52.086;5.090;2023-05-29T03:03:39;10.27;;;1.95;;
22939;SDS011;11636;52.086;5.090;2023-05-29T03:06:32;7.95;;;2.33;;
22939;SDS011;11636;52.086;5.090;2023-05-29T03:09:17;8.93;;;2.08;;
22939;SDS011;11636;52.086;5.090;2023-05-29T03:12:09;8.77;;;2.07;;
22939;SDS011;11636;52.086;5.090;2023-05-29T03:14:55;8.60;;;1.75;;
22939;SDS011;11636;52.086;5.090;2023-05-29T03:17:47;12.53;;;1.93;;
22939;SDS011;11636;52.086;5.090;2023-05-29T03:20:33;7.85;;;2.20;;
22939;SDS011;11636;52.086;5.090;2023-05-29T03:23:26;9.55;;;1.77;;
22939;SDS011;11636;52.086;5.090;2023-05-29T03:26:18;9.32;;;2.08;;
22939;SDS011;11636;52.086;5.090;2023-05-29T03:29:10;7.27;;;1.97;;
22939;SDS011;11636;52.086;5.090;2023-05-29T03:32:03;9.48;;;2.65;;
22939;SDS011;11636;52.086;5.090;2023-05-29T03:34:54;5.47;;;1.42;;
22939;SDS011;11636;52.086;5.090;2023-05-29T03:37:41;7.45;;;2.03;;
22939;SDS011;11636;52.086;5.090;2023-05-29T03:40:32;7.45;;;1.40;;
22939;SDS011;11636;52.086;5.090;2023-05-29T03:43:18;6.93;;;1.63;;
22939;SDS011;11636;52.086;5.090;2023-05-29T03:46:09;5.85;;;1.63;;
22939;SDS011;11636;52.086;5.090;2023-05-29T03:49:01;7.93;;;2.23;;
22939;SDS011;11636;52.086;5.090;2023-05-29T03:51:47;6.43;;;1.90;;
22939;SDS011;11636;52.086;5.090;2023-05-29T03:54:38;11.07;;;1.90;;
22939;SDS011;11636;52.086;5.090;2023-05-29T03:57:31;6.20;;;1.48;;
22939;SDS011;11636;52.086;5.090;2023-05-29T04:00:22;5.82;;;1.60;;
22939;SDS011;11636;52.086;5.090;2023-05-29T04:03:08;7.53;;;1.80;;
22939;SDS011;11636;52.086;5.090;2023-05-29T04:06:00;9.43;;;2.05;;
22939;SDS011;11636;52.086;5.090;2023-05-29T04:08:53;12.02;;;2.67;;
22939;SDS011;11636;52.086;5.090;2023-05-29T04:11:44;13.03;;;2.30;;
22939;SDS011;11636;52.086;5.090;2023-05-29T04:14:30;8.32;;;1.80;;
22939;SDS011;11636;52.086;5.090;2023-05-29T04:17:23;8.15;;;1.88;;
22939;SDS011;11636;52.086;5.090;2023-05-29T04:20:08;8.00;;;1.55;;
22939;SDS011;11636;52.086;5.090;2023-05-29T04:23:00;6.43;;;1.50;;
22939;SDS011;11636;52.086;5.090;2023-05-29T04:25:52;8.27;;;1.70;;
22939;SDS011;11636;52.086;5.090;2023-05-29T04:28:44;7.20;;;2.22;;
22939;SDS011;11636;52.086;5.090;2023-05-29T04:31:37;7.60;;;1.80;;
22939;SDS011;11636;52.086;5.090;2023-05-29T04:34:36;8.38;;;2.03;;
22939;SDS011;11636;52.086;5.090;2023-05-29T04:37:25;7.53;;;1.80;;
22939;SDS011;11636;52.086;5.090;2023-05-29T04:40:20;7.78;;;2.03;;
22939;SDS011;11636;52.086;5.090;2023-05-29T04:43:06;8.25;;;2.10;;
22939;SDS011;11636;52.086;5.090;2023-05-29T04:45:59;10.48;;;2.30;;
22939;SDS011;11636;52.086;5.090;2023-05-29T04:48:52;9.07;;;2.22;;
22939;SDS011;11636;52.086;5.090;2023-05-29T04:51:41;9.32;;;2.30;;
22939;SDS011;11636;52.086;5.090;2023-05-29T04:54:32;7.97;;;1.85;;
22939;SDS011;11636;52.086;5.090;2023-05-29T04:57:20;8.43;;;2.25;;
22939;SDS011;11636;52.086;5.090;2023-05-29T05:00:16;10.40;;;2.00;;
22939;SDS011;11636;52.086;5.090;2023-05-29T05:03:09;10.77;;;1.90;;
22939;SDS011;11636;52.086;5.090;2023-05-29T05:05:55;9.20;;;2.00;;
22939;SDS011;11636;52.086;5.090;2023-05-29T05:08:48;8.35;;;1.60;;
22939;SDS011;11636;52.086;5.090;2023-05-29T05:11:43;7.13;;;1.83;;
22939;SDS011;11636;52.086;5.090;2023-05-29T05:14:35;6.72;;;2.15;;
22939;SDS011;11636;52.086;5.090;2023-05-29T05:17:20;9.77;;;2.45;;
22939;SDS011;11636;52.086;5.090;2023-05-29T05:20:12;10.13;;;2.10;;
22939;SDS011;11636;52.086;5.090;2023-05-29T05:23:05;9.20;;;1.75;;
22939;SDS011;11636;52.086;5.090;2023-05-29T05:25:58;9.48;;;2.30;;
22939;SDS011;11636;52.086;5.090;2023-05-29T05:28:43;7.63;;;1.90;;
22939;SDS011;11636;52.086;5.090;2023-05-29T05:31:35;10.57;;;2.60;;
22939;SDS011;11636;52.086;5.090;2023-05-29T05:34:21;8.82;;;2.25;;
22939;SDS011;11636;52.086;5.090;2023-05-29T05:37:13;8.07;;;1.97;;
22939;SDS011;11636;52.086;5.090;2023-05-29T05:39:59;11.32;;;2.78;;
22939;SDS011;11636;52.086;5.090;2023-05-29T05:42:52;15.90;;;3.42;;
22939;SDS011;11636;52.086;5.090;2023-05-29T05:45:37;12.68;;;2.83;;
22939;SDS011;11636;52.086;5.090;2023-05-29T05:48:32;10.32;;;2.40;;
22939;SDS011;11636;52.086;5.090;2023-05-29T05:51:18;14.70;;;2.63;;
22939;SDS011;11636;52.086;5.090;2023-05-29T05:54:11;16.10;;;2.75;;
22939;SDS011;11636;52.086;5.090;2023-05-29T05:57:03;11.00;;;2.45;;
22939;SDS011;11636;52.086;5.090;2023-05-29T05:59:49;15.95;;;2.60;;
22939;SDS011;11636;52.086;5.090;2023-05-29T06:02:41;11.07;;;2.65;;
22939;SDS011;11636;52.086;5.090;2023-05-29T06:05:34;7.25;;;2.00;;
22939;SDS011;11636;52.086;5.090;2023-05-29T06:08:27;11.00;;;2.15;;
22939;SDS011;11636;52.086;5.090;2023-05-29T06:11:15;8.98;;;2.05;;
22939;SDS011;11636;52.086;5.090;2023-05-29T06:14:06;13.40;;;2.95;;
22939;SDS011;11636;52.086;5.090;2023-05-29T06:16:59;11.18;;;2.42;;
22939;SDS011;11636;52.086;5.090;2023-05-29T06:19:45;9.13;;;2.58;;
22939;SDS011;11636;52.086;5.090;2023-05-29T06:22:38;8.75;;;3.03;;
22939;SDS011;11636;52.086;5.090;2023-05-29T06:25:30;15.38;;;3.88;;
22939;SDS011;11636;52.086;5.090;2023-05-29T06:28:24;12.18;;;3.53;;
22939;SDS011;11636;52.086;5.090;2023-05-29T06:31:16;12.15;;;3.00;;
22939;SDS011;11636;52.086;5.090;2023-05-29T06:34:09;15.90;;;3.60;;
22939;SDS011;11636;52.086;5.090;2023-05-29T06:37:00;10.80;;;3.30;;
22939;SDS011;11636;52.086;5.090;2023-05-29T06:39:52;11.13;;;2.97;;
22939;SDS011;11636;52.086;5.090;2023-05-29T06:42:45;9.60;;;2.63;;
22939;SDS011;11636;52.086;5.090;2023-05-29T06:45:37;8.00;;;2.38;;
22939;SDS011;11636;52.086;5.090;2023-05-29T06:48:32;11.10;;;3.13;;
22939;SDS011;11636;52.086;5.090;2023-05-29T06:51:27;9.18;;;2.05;;
22939;SDS011;11636;52.086;5.090;2023-05-29T06:54:12;9.65;;;2.40;;
22939;SDS011;11636;52.086;5.090;2023-05-29T06:57:04;8.50;;;2.40;;
22939;SDS011;11636;52.086;5.090;2023-05-29T06:59:57;14.15;;;2.90;;
22939;SDS011;11636;52.086;5.090;2023-05-29T07:02:49;12.88;;;2.92;;
22939;SDS011;11636;52.086;5.090;2023-05-29T07:05:36;8.40;;;2.20;;
22939;SDS011;11636;52.086;5.090;2023-05-29T07:08:28;16.23;;;2.63;;
22939;SDS011;11636;52.086;5.090;2023-05-29T07:11:13;12.25;;;2.70;;
22939;SDS011;11636;52.086;5.090;2023-05-29T07:14:06;8.63;;;2.42;;
22939;SDS011;11636;52.086;5.090;2023-05-29T07:16:58;13.88;;;3.05;;
22939;SDS011;11636;52.086;5.090;2023-05-29T07:19:44;11.95;;;2.50;;
22939;SDS011;11636;52.086;5.090;2023-05-29T07:22:37;10.40;;;2.72;;
22939;SDS011;11636;52.086;5.090;2023-05-29T07:25:22;9.40;;;2.20;;
22939;SDS011;11636;52.086;5.090;2023-05-29T07:28:15;9.43;;;2.22;;
22939;SDS011;11636;52.086;5.090;2023-05-29T07:31:07;9.40;;;2.60;;
22939;SDS011;11636;52.086;5.090;2023-05-29T07:33:59;11.10;;;2.70;;
22939;SDS011;11636;52.086;5.090;2023-05-29T07:36:57;10.63;;;2.63;;
22939;SDS011;11636;52.086;5.090;2023-05-29T07:39:54;9.15;;;2.28;;
22939;SDS011;11636;52.086;5.090;2023-05-29T07:42:40;9.02;;;2.25;;
22939;SDS011;11636;52.086;5.090;2023-05-29T07:45:33;10.45;;;2.63;;
22939;SDS011;11636;52.086;5.090;2023-05-29T07:48:24;12.60;;;3.37;;
22939;SDS011;11636;52.086;5.090;2023-05-29T07:51:17;11.40;;;2.60;;
22939;SDS011;11636;52.086;5.090;2023-05-29T07:54:09;12.25;;;2.20;;
22939;SDS011;11636;52.086;5.090;2023-05-29T07:56:54;8.73;;;2.35;;
22939;SDS011;11636;52.086;5.090;2023-05-29T07:59:47;7.60;;;1.92;;
22939;SDS011;11636;52.086;5.090;2023-05-29T08:02:35;6.95;;;2.00;;
22939;SDS011;11636;52.086;5.090;2023-05-29T08:05:30;9.75;;;2.45;;
22939;SDS011;11636;52.086;5.090;2023-05-29T08:08:25;8.27;;;1.83;;
22939;SDS011;11636;52.086;5.090;2023-05-29T08:11:10;7.15;;;1.75;;
22939;SDS011;11636;52.086;5.090;2023-05-29T08:14:03;7.20;;;2.00;;
22939;SDS011;11636;52.086;5.090;2023-05-29T08:16:48;6.95;;;2.08;;
22939;SDS011;11636;52.086;5.090;2023-05-29T08:19:41;9.27;;;2.33;;
22939;SDS011;11636;52.086;5.090;2023-05-29T08:22:29;10.63;;;2.63;;
22939;SDS011;11636;52.086;5.090;2023-05-29T08:25:21;9.43;;;2.03;;
22939;SDS011;11636;52.086;5.090;2023-05-29T08:28:14;9.32;;;2.08;;
22939;SDS011;11636;52.086;5.090;2023-05-29T08:31:06;8.65;;;2.38;;
22939;SDS011;11636;52.086;5.090;2023-05-29T08:34:04;7.28;;;1.90;;
22939;SDS011;11636;52.086;5.090;2023-05-29T08:36:58;8.40;;;2.30;;
22939;SDS011;11636;52.086;5.090;2023-05-29T08:39:50;7.43;;;2.20;;
22939;SDS011;11636;52.086;5.090;2023-05-29T08:42:46;6.70;;;2.25;;
22939;SDS011;11636;52.086;5.090;2023-05-29T08:45:42;7.35;;;1.65;;
22939;SDS011;11636;52.086;5.090;2023-05-29T08:48:29;9.23;;;2.42;;
22939;SDS011;11636;52.086;5.090;2023-05-29T08:51:22;8.15;;;2.10;;
22939;SDS011;11636;52.086;5.090;2023-05-29T08:54:21;6.35;;;2.00;;
22939;SDS011;11636;52.086;5.090;2023-05-29T08:57:07;8.38;;;2.00;;
22939;SDS011;11636;52.086;5.090;2023-05-29T09:00:00;5.07;;;1.60;;
22939;SDS011;11636;52.086;5.090;2023-05-29T09:02:45;8.85;;;1.90;;
22939;SDS011;11636;52.086;5.090;2023-05-29T09:05:41;7.20;;;2.10;;
22939;SDS011;11636;52.086;5.090;2023-05-29T09:08:32;6.45;;;2.05;;
22939;SDS011;11636;52.086;5.090;2023-05-29T09:11:19;10.88;;;2.78;;
22939;SDS011;11636;52.086;5.090;2023-05-29T09:17:29;6.80;;;1.88;;
22939;SDS011;11636;52.086;5.090;2023-05-29T09:20:32;5.25;;;1.50;;
22939;SDS011;11636;52.086;5.090;2023-05-29T09:23:25;8.77;;;1.98;;
22939;SDS011;11636;52.086;5.090;2023-05-29T09:26:11;9.38;;;3.35;;
22939;SDS011;11636;52.086;5.090;2023-05-29T09:29:06;5.90;;;2.00;;
22939;SDS011;11636;52.086;5.090;2023-05-29T09:32:00;7.20;;;2.08;;
22939;SDS011;11636;52.086;5.090;2023-05-29T09:34:49;7.13;;;2.00;;
22939;SDS011;11636;52.086;5.090;2023-05-29T09:37:46;8.35;;;2.20;;
22939;SDS011;11636;52.086;5.090;2023-05-29T09:40:39;8.35;;;2.40;;
22939;SDS011;11636;52.086;5.090;2023-05-29T09:43:25;7.68;;;2.00;;
22939;SDS011;11636;52.086;5.090;2023-05-29T09:46:17;7.72;;;2.20;;
22939;SDS011;11636;52.086;5.090;2023-05-29T09:49:03;7.88;;;2.75;;
22939;SDS011;11636;52.086;5.090;2023-05-29T09:52:02;5.20;;;2.10;;
22939;SDS011;11636;52.086;5.090;2023-05-29T09:54:54;5.53;;;1.75;;
22939;SDS011;11636;52.086;5.090;2023-05-29T09:57:42;7.53;;;1.92;;
22939;SDS011;11636;52.086;5.090;2023-05-29T10:00:34;5.93;;;1.80;;
22939;SDS011;11636;52.086;5.090;2023-05-29T10:03:19;9.75;;;2.30;;
22939;SDS011;11636;52.086;5.090;2023-05-29T10:06:16;12.80;;;2.78;;
22939;SDS011;11636;52.086;5.090;2023-05-29T10:09:05;7.57;;;1.92;;
22939;SDS011;11636;52.086;5.090;2023-05-29T10:12:03;8.63;;;2.20;;
22939;SDS011;11636;52.086;5.090;2023-05-29T10:14:59;7.30;;;2.20;;
22939;SDS011;11636;52.086;5.090;2023-05-29T10:18:05;6.65;;;2.13;;
22939;SDS011;11636;52.086;5.090;2023-05-29T10:21:04;8.15;;;2.20;;
22939;SDS011;11636;52.086;5.090;2023-05-29T10:23:52;8.32;;;2.40;;
22939;SDS011;11636;52.086;5.090;2023-05-29T10:26:47;4.53;;;1.60;;
22939;SDS011;11636;52.086;5.090;2023-05-29T10:29:35;7.18;;;1.90;;
22939;SDS011;11636;52.086;5.090;2023-05-29T10:32:40;5.85;;;1.80;;
22939;SDS011;11636;52.086;5.090;2023-05-29T10:35:40;8.05;;;2.20;;
22939;SDS011;11636;52.086;5.090;2023-05-29T10:38:31;6.32;;;1.75;;
22939;SDS011;11636;52.086;5.090;2023-05-29T10:47:23;8.05;;;2.42;;
22939;SDS011;11636;52.086;5.090;2023-05-29T10:50:38;7.53;;;2.22;;
22939;SDS011;11636;52.086;5.090;2023-05-29T10:53:42;6.63;;;2.10;;
22939;SDS011;11636;52.086;5.090;2023-05-29T10:56:34;7.60;;;2.97;;
22939;SDS011;11636;52.086;5.090;2023-05-29T10:59:35;11.35;;;2.45;;
22939;SDS011;11636;52.086;5.090;2023-05-29T11:02:27;7.63;;;2.70;;
22939;SDS011;11636;52.086;5.090;2023-05-29T11:05:20;9.32;;;2.95;;
22939;SDS011;11636;52.086;5.090;2023-05-29T11:08:12;8.55;;;2.35;;
22939;SDS011;11636;52.086;5.090;2023-05-29T11:11:04;8.93;;;2.63;;
22939;SDS011;11636;52.086;5.090;2023-05-29T11:13:51;7.43;;;2.00;;
22939;SDS011;11636;52.086;5.090;2023-05-29T11:16:44;6.25;;;2.20;;
22939;SDS011;11636;52.086;5.090;2023-05-29T11:19:36;9.02;;;2.65;;
22939;SDS011;11636;52.086;5.090;2023-05-29T11:22:23;12.40;;;3.33;;
22939;SDS011;11636;52.086;5.090;2023-05-29T11:25:23;10.73;;;2.60;;
22939;SDS011;11636;52.086;5.090;2023-05-29T11:28:15;6.60;;;2.13;;
22939;SDS011;11636;52.086;5.090;2023-05-29T11:31:00;9.98;;;2.55;;
22939;SDS011;11636;52.086;5.090;2023-05-29T11:33:59;7.72;;;2.42;;
22939;SDS011;11636;52.086;5.090;2023-05-29T11:36:52;8.00;;;2.63;;
22939;SDS011;11636;52.086;5.090;2023-05-29T11:39:45;10.77;;;3.30;;
22939;SDS011;11636;52.086;5.090;2023-05-29T11:42:41;11.02;;;3.05;;
22939;SDS011;11636;52.086;5.090;2023-05-29T11:45:32;7.68;;;2.17;;
22939;SDS011;11636;52.086;5.090;2023-05-29T11:48:27;5.03;;;2.10;;
22939;SDS011;11636;52.086;5.090;2023-05-29T11:51:12;10.50;;;3.53;;
22939;SDS011;11636;52.086;5.090;2023-05-29T11:54:05;6.78;;;2.38;;
22939;SDS011;11636;52.086;5.090;2023-05-29T11:56:57;11.93;;;3.30;;
22939;SDS011;11636;52.086;5.090;2023-05-29T11:59:42;11.43;;;3.08;;
22939;SDS011;11636;52.086;5.090;2023-05-29T12:02:35;12.43;;;3.30;;
22939;SDS011;11636;52.086;5.090;2023-05-29T12:05:27;11.23;;;3.60;;
22939;SDS011;11636;52.086;5.090;2023-05-29T12:11:15;10.02;;;3.47;;
22939;SDS011;11636;52.086;5.090;2023-05-29T12:14:08;8.70;;;2.90;;
22939;SDS011;11636;52.086;5.090;2023-05-29T12:17:00;8.85;;;2.60;;
22939;SDS011;11636;52.086;5.090;2023-05-29T12:19:52;8.88;;;3.42;;
22939;SDS011;11636;52.086;5.090;2023-05-29T12:22:45;10.57;;;2.90;;
22939;SDS011;11636;52.086;5.090;2023-05-29T12:25:33;11.77;;;3.58;;
22939;SDS011;11636;52.086;5.090;2023-05-29T12:28:28;7.75;;;3.10;;
22939;SDS011;11636;52.086;5.090;2023-05-29T12:31:14;10.85;;;3.28;;
22939;SDS011;11636;52.086;5.090;2023-05-29T12:34:21;15.70;;;4.57;;
22939;SDS011;11636;52.086;5.090;2023-05-29T12:37:14;10.68;;;3.60;;
22939;SDS011;11636;52.086;5.090;2023-05-29T12:43:14;8.32;;;3.17;;
22939;SDS011;11636;52.086;5.090;2023-05-29T12:46:00;16.90;;;4.40;;
22939;SDS011;11636;52.086;5.090;2023-05-29T12:48:53;10.95;;;3.13;;
22939;SDS011;11636;52.086;5.090;2023-05-29T12:51:44;9.40;;;3.00;;
22939;SDS011;11636;52.086;5.090;2023-05-29T12:54:37;15.40;;;3.67;;
22939;SDS011;11636;52.086;5.090;2023-05-29T12:57:24;9.32;;;3.08;;
22939;SDS011;11636;52.086;5.090;2023-05-29T13:00:17;8.82;;;3.10;;
22939;SDS011;11636;52.086;5.090;2023-05-29T13:03:05;10.00;;;3.10;;
22939;SDS011;11636;52.086;5.090;2023-05-29T13:05:57;9.88;;;3.20;;
22939;SDS011;11636;52.086;5.090;2023-05-29T13:08:49;8.90;;;2.75;;
22939;SDS011;11636;52.086;5.090;2023-05-29T13:11:35;12.38;;;3.97;;
22939;SDS011;11636;52.086;5.090;2023-05-29T13:14:27;9.73;;;2.83;;
22939;SDS011;11636;52.086;5.090;2023-05-29T13:17:19;12.95;;;3.20;;
22939;SDS011;11636;52.086;5.090;2023-05-29T13:20:12;10.43;;;2.72;;
22939;SDS011;11636;52.086;5.090;2023-05-29T13:22:58;14.13;;;3.42;;
22939;SDS011;11636;52.086;5.090;2023-05-29T13:25:50;16.30;;;4.57;;
22939;SDS011;11636;52.086;5.090;2023-05-29T13:28:36;14.40;;;3.95;;
22939;SDS011;11636;52.086;5.090;2023-05-29T13:31:28;15.98;;;3.75;;
22939;SDS011;11636;52.086;5.090;2023-05-29T13:34:14;8.75;;;3.08;;
22939;SDS011;11636;52.086;5.090;2023-05-29T13:37:06;8.02;;;2.53;;
22939;SDS011;11636;52.086;5.090;2023-05-29T13:39:52;10.85;;;3.15;;
22939;SDS011;11636;52.086;5.090;2023-05-29T13:45:39;9.73;;;3.28;;
22939;SDS011;11636;52.086;5.090;2023-05-29T13:48:25;11.52;;;3.10;;
22939;SDS011;11636;52.086;5.090;2023-05-29T13:51:17;10.88;;;3.50;;
22939;SDS011;11636;52.086;5.090;2023-05-29T13:54:09;7.82;;;2.88;;
22939;SDS011;11636;52.086;5.090;2023-05-29T13:56:55;8.85;;;3.30;;
22939;SDS011;11636;52.086;5.090;2023-05-29T13:59:48;14.35;;;3.60;;
22939;SDS011;11636;52.086;5.090;2023-05-29T14:02:34;9.85;;;2.83;;
22939;SDS011;11636;52.086;5.090;2023-05-29T14:05:26;8.88;;;3.42;;
22939;SDS011;11636;52.086;5.090;2023-05-29T14:08:12;12.73;;;3.35;;
22939;SDS011;11636;52.086;5.090;2023-05-29T14:11:04;12.15;;;3.38;;
22939;SDS011;11636;52.086;5.090;2023-05-29T14:13:53;10.93;;;3.17;;
22939;SDS011;11636;52.086;5.090;2023-05-29T14:16:45;13.05;;;3.17;;
22939;SDS011;11636;52.086;5.090;2023-05-29T14:19:31;13.57;;;3.55;;
22939;SDS011;11636;52.086;5.090;2023-05-29T14:22:23;7.10;;;2.60;;
22939;SDS011;11636;52.086;5.090;2023-05-29T14:25:08;7.30;;;2.60;;
22939;SDS011;11636;52.086;5.090;2023-05-29T14:28:00;12.52;;;3.55;;
22939;SDS011;11636;52.086;5.090;2023-05-29T14:30:52;11.23;;;3.40;;
22939;SDS011;11636;52.086;5.090;2023-05-29T14:33:44;8.95;;;2.78;;
22939;SDS011;11636;52.086;5.090;2023-05-29T14:36:30;9.30;;;3.03;;
22939;SDS011;11636;52.086;5.090;2023-05-29T14:39:21;10.43;;;3.10;;
22939;SDS011;11636;52.086;5.090;2023-05-29T14:42:07;11.43;;;3.35;;
22939;SDS011;11636;52.086;5.090;2023-05-29T14:44:59;9.23;;;2.58;;
22939;SDS011;11636;52.086;5.090;2023-05-29T14:47:51;11.18;;;3.95;;
22939;SDS011;11636;52.086;5.090;2023-05-29T14:50:37;12.98;;;3.58;;
22939;SDS011;11636;52.086;5.090;2023-05-29T14:53:30;11.38;;;2.85;;
22939;SDS011;11636;52.086;5.090;2023-05-29T14:56:16;15.02;;;3.65;;
22939;SDS011;11636;52.086;5.090;2023-05-29T14:59:12;10.60;;;3.78;;
22939;SDS011;11636;52.086;5.090;2023-05-29T15:02:03;10.43;;;2.97;;
22939;SDS011;11636;52.086;5.090;2023-05-29T15:04:49;7.70;;;2.88;;
22939;SDS011;11636;52.086;5.090;2023-05-29T15:07:40;10.40;;;2.85;;
22939;SDS011;11636;52.086;5.090;2023-05-29T15:10:26;12.23;;;3.75;;
22939;SDS011;11636;52.086;5.090;2023-05-29T15:13:19;12.63;;;3.78;;
22939;SDS011;11636;52.086;5.090;2023-05-29T15:16:10;16.23;;;3.75;;
22939;SDS011;11636;52.086;5.090;2023-05-29T15:18:57;11.40;;;3.20;;
22939;SDS011;11636;52.086;5.090;2023-05-29T15:21:48;12.73;;;3.38;;
22939;SDS011;11636;52.086;5.090;2023-05-29T15:24:34;10.38;;;3.45;;
22939;SDS011;11636;52.086;5.090;2023-05-29T15:30:22;9.63;;;2.83;;
22939;SDS011;11636;52.086;5.090;2023-05-29T15:33:14;8.10;;;2.75;;
22939;SDS011;11636;52.086;5.090;2023-05-29T15:36:05;15.00;;;3.97;;
22939;SDS011;11636;52.086;5.090;2023-05-29T15:38:52;12.88;;;4.25;;
22939;SDS011;11636;52.086;5.090;2023-05-29T15:41:43;10.05;;;3.65;;
22939;SDS011;11636;52.086;5.090;2023-05-29T15:44:36;9.05;;;3.10;;
22939;SDS011;11636;52.086;5.090;2023-05-29T15:47:28;7.25;;;2.90;;
22939;SDS011;11636;52.086;5.090;2023-05-29T15:50:20;14.05;;;4.88;;
22939;SDS011;11636;52.086;5.090;2023-05-29T15:53:13;11.95;;;4.18;;
22939;SDS011;11636;52.086;5.090;2023-05-29T15:55:58;12.65;;;4.20;;
22939;SDS011;11636;52.086;5.090;2023-05-29T15:58:51;16.70;;;4.85;;
22939;SDS011;11636;52.086;5.090;2023-05-29T16:01:36;13.32;;;3.83;;
22939;SDS011;11636;52.086;5.090;2023-05-29T16:04:29;14.38;;;3.72;;
22939;SDS011;11636;52.086;5.090;2023-05-29T16:07:14;14.00;;;3.75;;
22939;SDS011;11636;52.086;5.090;2023-05-29T16:10:07;14.73;;;3.50;;
22939;SDS011;11636;52.086;5.090;2023-05-29T16:13:00;11.32;;;3.30;;
22939;SDS011;11636;52.086;5.090;2023-05-29T16:15:45;13.32;;;3.13;;
22939;SDS011;11636;52.086;5.090;2023-05-29T16:18:38;12.27;;;3.10;;
22939;SDS011;11636;52.086;5.090;2023-05-29T16:21:23;10.85;;;2.83;;
22939;SDS011;11636;52.086;5.090;2023-05-29T16:24:15;10.75;;;3.05;;
22939;SDS011;11636;52.086;5.090;2023-05-29T16:27:01;11.27;;;3.30;;
22939;SDS011;11636;52.086;5.090;2023-05-29T16:29:58;9.23;;;2.85;;
22939;SDS011;11636;52.086;5.090;2023-05-29T16:32:45;8.30;;;2.90;;
22939;SDS011;11636;52.086;5.090;2023-05-29T16:38:29;10.88;;;3.42;;
22939;SDS011;11636;52.086;5.090;2023-05-29T16:41:20;12.57;;;3.20;;
22939;SDS011;11636;52.086;5.090;2023-05-29T16:44:06;10.77;;;3.50;;
22939;SDS011;11636;52.086;5.090;2023-05-29T16:47:00;9.05;;;2.78;;
22939;SDS011;11636;52.086;5.090;2023-05-29T16:49:45;11.55;;;3.20;;
22939;SDS011;11636;52.086;5.090;2023-05-29T16:52:39;11.27;;;3.22;;
22939;SDS011;11636;52.086;5.090;2023-05-29T16:55:30;11.23;;;3.03;;
22939;SDS011;11636;52.086;5.090;2023-05-29T16:58:23;12.10;;;2.75;;
22939;SDS011;11636;52.086;5.090;2023-05-29T17:01:08;9.07;;;2.75;;
22939;SDS011;11636;52.086;5.090;2023-05-29T17:06:46;7.57;;;2.70;;
22939;SDS011;11636;52.086;5.090;2023-05-29T17:09:39;14.23;;;3.58;;
22939;SDS011;11636;52.086;5.090;2023-05-29T17:12:31;10.55;;;3.22;;
22939;SDS011;11636;52.086;5.090;2023-05-29T17:15:23;9.95;;;2.67;;
22939;SDS011;11636;52.086;5.090;2023-05-29T17:18:08;9.88;;;2.60;;
22939;SDS011;11636;52.086;5.090;2023-05-29T17:21:00;11.23;;;3.08;;
22939;SDS011;11636;52.086;5.090;2023-05-29T17:23:52;9.68;;;2.47;;
22939;SDS011;11636;52.086;5.090;2023-05-29T17:26:45;6.90;;;2.70;;
22939;SDS011;11636;52.086;5.090;2023-05-29T17:29:31;15.05;;;4.00;;
22939;SDS011;11636;52.086;5.090;2023-05-29T17:32:22;8.63;;;2.87;;
22939;SDS011;11636;52.086;5.090;2023-05-29T17:35:15;14.07;;;3.25;;
22939;SDS011;11636;52.086;5.090;2023-05-29T17:38:02;13.05;;;3.70;;
22939;SDS011;11636;52.086;5.090;2023-05-29T17:43:40;9.23;;;3.30;;
22939;SDS011;11636;52.086;5.090;2023-05-29T17:46:32;10.73;;;3.40;;